Au Sable Forks, New York
Current Conditions -  °F | °C
As of 11:35 AM on Friday 24 Oct 2014 (Local Time) from KPBG Reporting Station
Overcast Overcast  
Wind Chill:   Ceiling: 3300
Heat Index:   Visibility: 10mi
Dew Point:   Wind: 14mph
Humidity: 71%   Direction: 350°N
Pressure: 29.87"   Gusts: NA
Location:  44.44°N, 73.67°W
Report Text: KPBG 241535Z AUTO 35012KT 10SM OVC033 09/04 A2987 RMK AO2 T00940044
Loading
Personal Weather Stations






























Interactive Weather Map
Tropical Storm Tracking
New forecast layout! Learn more

10-Day Weather Forecast

Advertisements
Track Severe Weather on mobile